Time;durP1;ratioP1;P1;durP2;ratioP2;P2;SDS_P1;SDS_P2;PMS_P1;PMS_P2;Temp;Humidity;BMP_temperature;BMP_pressure;BME280_temperature;BME280_humidity;BME280_pressure;Samples;Min_cycle;Max_cycle;Signal;HPM_P1;HPM_P2
2023/03/16 00:02:02;;;;;;;7.37;4.90;;;-1.00;99.90;-2.20;100395;;;;577906;243;23971;-73
2023/03/16 00:04:30;;;;;;;10.37;4.87;;;-1.10;99.90;-2.20;100406;;;;589526;243;23974;-76
2023/03/16 00:06:58;;;;;;;8.00;4.67;;;-1.10;99.90;-2.30;100400;;;;580544;243;23970;-73
2023/03/16 00:09:29;;;;;;;7.43;4.27;;;-1.20;99.90;-2.30;100408;;;;589616;242;23964;-72
2023/03/16 00:11:54;;;;;;;7.90;4.07;;;-1.20;99.90;-2.40;100409;;;;589388;243;24068;-74
2023/03/16 00:14:22;;;;;;;6.80;4.40;;;-1.20;99.90;-2.40;100411;;;;589650;243;24017;-73
2023/03/16 00:16:50;;;;;;;5.80;4.13;;;-1.30;99.90;-2.40;100404;;;;589532;243;23963;-74
2023/03/16 00:19:18;;;;;;;11.30;4.00;;;-1.30;99.90;-2.50;100408;;;;589011;243;24024;-73
2023/03/16 00:21:46;;;;;;;11.00;4.63;;;-1.30;99.90;-2.50;100412;;;;575327;243;23994;-73
2023/03/16 00:24:16;;;;;;;8.87;4.80;;;-1.40;99.90;-2.50;100413;;;;589190;243;23985;-77
2023/03/16 00:26:46;;;;;;;13.47;5.10;;;-1.40;99.90;-2.60;100405;;;;589113;243;24029;-78
2023/03/16 00:29:17;;;;;;;10.17;4.77;;;-1.40;99.90;-2.60;100400;;;;581407;243;24047;-78
2023/03/16 00:31:45;;;;;;;10.23;5.13;;;-1.40;99.90;-2.60;100408;;;;566848;247;23991;-79
2023/03/16 00:34:14;;;;;;;8.03;4.10;;;-1.40;99.90;-2.60;100407;;;;590284;243;23984;-78
2023/03/16 00:36:41;;;;;;;7.97;3.80;;;-1.40;99.90;-2.60;100413;;;;578479;243;23977;-72
2023/03/16 00:39:10;;;;;;;8.73;4.07;;;-1.40;99.90;-2.50;100407;;;;578392;243;23992;-74
2023/03/16 00:41:37;;;;;;;7.60;4.23;;;-1.40;99.90;-2.50;100410;;;;578163;243;23986;-78
2023/03/16 00:44:08;;;;;;;7.37;4.57;;;-1.40;99.90;-2.50;100412;;;;578599;243;24019;-78
2023/03/16 00:46:34;;;;;;;10.63;5.20;;;-1.40;99.90;-2.50;100407;;;;573187;243;44977;-79
2023/03/16 00:49:02;;;;;;;11.33;4.63;;;-1.30;99.90;-2.50;100406;;;;578310;243;23986;-79
2023/03/16 00:51:32;;;;;;;9.77;5.28;;;-1.30;99.90;-2.40;100408;;;;573205;243;34276;-73
2023/03/16 00:53:59;;;;;;;9.27;4.70;;;-1.30;99.90;-2.40;100401;;;;578179;243;24011;-74
2023/03/16 00:56:27;;;;;;;7.50;3.73;;;-1.30;99.90;-2.40;100406;;;;578347;243;24021;-73
2023/03/16 00:58:56;;;;;;;7.57;3.90;;;-1.30;99.90;-2.40;100407;;;;577886;243;23992;-73
2023/03/16 01:01:23;;;;;;;9.82;5.07;;;-1.30;99.90;-2.40;100405;;;;572722;243;34270;-73
2023/03/16 01:03:50;;;;;;;7.77;4.43;;;-1.30;99.90;-2.40;100403;;;;577886;243;24001;-75
2023/03/16 01:06:19;;;;;;;8.93;3.73;;;-1.20;99.90;-2.30;100406;;;;577706;243;23974;-74
2023/03/16 01:08:46;;;;;;;10.00;3.70;;;-1.20;99.90;-2.30;100407;;;;577733;243;24019;-73
2023/03/16 01:11:18;;;;;;;9.20;3.73;;;-1.20;99.90;-2.30;100415;;;;575358;243;24040;-73
2023/03/16 01:13:48;;;;;;;7.00;4.10;;;-1.20;99.90;-2.30;100403;;;;575802;243;24020;-75
2023/03/16 01:16:21;;;;;;;6.57;3.80;;;-1.10;99.90;-2.20;100412;;;;575484;243;24072;-73
2023/03/16 01:18:48;;;;;;;8.43;4.00;;;-1.10;99.90;-2.20;100420;;;;577840;243;24004;-73
2023/03/16 01:21:16;;;;;;;4.60;3.50;;;-1.10;99.90;-2.20;100417;;;;577575;243;23989;-71
2023/03/16 01:23:44;;;;;;;7.90;3.63;;;-1.10;99.90;-2.20;100404;;;;577581;243;24988;-73
2023/03/16 01:26:14;;;;;;;9.73;4.40;;;-1.10;99.90;-2.20;100413;;;;577718;243;23965;-73
2023/03/16 01:28:40;;;;;;;8.53;4.13;;;-1.10;99.90;-2.20;100415;;;;577566;243;24017;-75
2023/03/16 01:31:08;;;;;;;8.43;3.80;;;-1.10;99.90;-2.20;100414;;;;577799;243;23979;-73
2023/03/16 01:33:36;;;;;;;8.23;4.70;;;-1.10;99.90;-2.20;100411;;;;575457;243;24008;-73
2023/03/16 01:36:04;;;;;;;4.47;3.40;;;-1.10;99.90;-2.20;100413;;;;589159;241;23965;-75
2023/03/16 01:38:32;;;;;;;5.03;4.00;;;-1.10;99.90;-2.20;100420;;;;577689;243;23982;-73
2023/03/16 01:41:00;;;;;;;14.23;3.87;;;-1.10;99.90;-2.20;100417;;;;578533;243;24039;-73
2023/03/16 01:43:28;;;;;;;5.20;3.43;;;-1.10;99.90;-2.20;100418;;;;581454;243;23965;-73
2023/03/16 01:46:04;;;;;;;10.63;4.30;;;-1.10;99.90;-2.20;100414;;;;581061;243;24004;-75
2023/03/16 01:48:36;;;;;;;9.47;3.37;;;-1.20;99.90;-2.30;100410;;;;581369;243;23956;-74
2023/03/16 01:51:06;;;;;;;9.20;3.83;;;-1.20;99.90;-2.30;100417;;;;589882;243;25059;-72
2023/03/16 01:53:34;;;;;;;5.67;3.77;;;-1.20;99.90;-2.30;100421;;;;589700;243;24014;-72
2023/03/16 01:56:02;;;;;;;5.67;3.40;;;-1.20;99.90;-2.30;100416;;;;590093;243;24027;-72
2023/03/16 01:58:30;;;;;;;7.47;3.97;;;-1.20;99.90;-2.30;100418;;;;589727;239;23980;-72
2023/03/16 02:01:01;;;;;;;7.43;3.50;;;-1.20;99.90;-2.30;100424;;;;589892;243;24025;-73
2023/03/16 02:03:26;;;;;;;7.53;4.17;;;-1.20;99.90;-2.30;100429;;;;580708;243;23993;-72
2023/03/16 02:06:02;;;;;;;6.40;3.50;;;-1.20;99.90;-2.30;100422;;;;589852;243;23984;-73
2023/03/16 02:08:33;;;;;;;9.03;3.67;;;-1.20;99.90;-2.30;100423;;;;580257;243;23962;-73
2023/03/16 02:10:58;;;;;;;7.30;4.53;;;-1.20;99.90;-2.20;100426;;;;578171;243;23988;-73
2023/03/16 02:13:28;;;;;;;8.03;3.73;;;-1.20;99.90;-2.20;100424;;;;580830;243;24011;-75
2023/03/16 02:15:57;;;;;;;7.73;3.97;;;-1.10;99.90;-2.20;100431;;;;589685;243;23982;-73
2023/03/16 02:18:23;;;;;;;8.63;3.90;;;-1.10;99.90;-2.20;100432;;;;580346;243;24022;-73
2023/03/16 02:21:16;;;;;;;5.80;3.70;;;-1.10;99.90;-2.10;100431;;;;589593;243;23947;-73
2023/03/16 02:23:44;;;;;;;8.03;4.30;;;-1.10;99.90;-2.10;100429;;;;579938;243;23981;-73
2023/03/16 02:26:33;;;;;;;6.77;3.90;;;-1.00;99.90;-2.10;100427;;;;589583;243;23948;-73
2023/03/16 02:29:24;;;;;;;7.53;4.17;;;-1.10;99.90;-2.20;100421;;;;588716;243;23978;-73
2023/03/16 02:31:51;;;;;;;7.30;3.50;;;-1.10;99.90;-2.20;100429;;;;588537;243;23996;-74
2023/03/16 02:34:19;;;;;;;9.77;4.33;;;-1.10;99.90;-2.20;100435;;;;580076;243;24280;-72
2023/03/16 02:36:47;;;;;;;5.50;4.10;;;-1.10;99.90;-2.30;100431;;;;580130;243;23973;-73
2023/03/16 02:39:15;;;;;;;7.17;4.00;;;-1.20;99.90;-2.30;100425;;;;589036;243;23977;-75
2023/03/16 02:41:42;;;;;;;11.63;5.47;;;-1.20;99.90;-2.30;100432;;;;584040;243;34206;-72
2023/03/16 02:44:14;;;;;;;9.57;4.13;;;-1.20;99.90;-2.30;100431;;;;577019;243;23973;-73
2023/03/16 02:46:42;;;;;;;8.00;4.17;;;-1.20;99.90;-2.40;100430;;;;588974;243;23971;-72
2023/03/16 02:49:27;;;;;;;5.30;3.93;;;-1.20;99.90;-2.40;100428;;;;589054;243;23969;-72
2023/03/16 02:51:56;;;;;;;8.65;4.93;;;-1.30;99.90;-2.40;100425;;;;575912;242;34293;-73
2023/03/16 02:54:27;;;;;;;11.20;4.67;;;-1.30;99.90;-2.50;100424;;;;590952;241;24005;-73
2023/03/16 02:56:51;;;;;;;8.20;4.30;;;-1.30;99.90;-2.50;100432;;;;578716;243;24063;-73
2023/03/16 02:59:19;;;;;;;8.97;4.83;;;-1.30;99.90;-2.50;100436;;;;580971;242;24009;-71
2023/03/16 03:01:47;;;;;;;9.50;4.70;;;-1.40;99.90;-2.40;100427;;;;589860;242;24001;-75
2023/03/16 03:04:15;;;;;;;9.40;4.57;;;-1.40;99.90;-2.50;100432;;;;589981;243;23987;-76
2023/03/16 03:06:44;;;;;;;4.93;4.17;;;-1.30;99.90;-2.50;100431;;;;589693;241;24014;-77
2023/03/16 03:09:13;;;;;;;9.33;4.87;;;-1.30;99.90;-2.50;100424;;;;589893;243;23968;-76
2023/03/16 03:11:40;;;;;;;9.73;4.37;;;-1.40;99.90;-2.50;100427;;;;589492;243;23960;-78
2023/03/16 03:14:09;;;;;;;9.30;4.77;;;-1.40;99.90;-2.50;100434;;;;580856;243;23970;-72
2023/03/16 03:16:37;;;;;;;9.07;5.50;;;-1.40;99.90;-2.60;100423;;;;584331;243;55911;-77
2023/03/16 03:19:05;;;;;;;6.73;5.07;;;-1.40;99.90;-2.60;100424;;;;589374;243;23973;-76
2023/03/16 03:21:33;;;;;;;6.00;4.57;;;-1.40;99.90;-2.60;100434;;;;589527;243;24015;-78
2023/03/16 03:24:01;;;;;;;7.87;4.63;;;-1.40;99.90;-2.60;100439;;;;589399;243;24041;-76
2023/03/16 03:26:28;;;;;;;9.43;5.23;;;-1.50;99.90;-2.60;100430;;;;589239;243;24024;-77
2023/03/16 03:28:56;;;;;;;9.23;5.13;;;-1.50;99.90;-2.60;100444;;;;589356;243;23962;-77
2023/03/16 03:31:24;;;;;;;12.90;4.97;;;-1.50;99.90;-2.70;100442;;;;589089;243;24029;-77
2023/03/16 03:33:52;;;;;;;7.90;5.37;;;-1.50;99.90;-2.70;100432;;;;589239;243;23962;-77
2023/03/16 03:36:21;;;;;;;7.83;4.90;;;-1.50;99.90;-2.70;100439;;;;589179;243;23988;-72
2023/03/16 03:38:53;;;;;;;10.07;5.10;;;-1.50;99.90;-2.80;100442;;;;589206;243;23959;-73
2023/03/16 03:41:16;;;;;;;9.60;5.43;;;-1.60;99.90;-2.80;100441;;;;575269;243;24004;-74
2023/03/16 03:43:44;;;;;;;11.70;6.13;;;-1.60;99.90;-2.70;100442;;;;589091;243;23969;-77
2023/03/16 03:46:12;;;;;;;7.40;4.53;;;-1.60;99.90;-2.80;100434;;;;589265;243;24048;-78
2023/03/16 03:48:40;;;;;;;9.47;5.50;;;-1.60;99.90;-2.70;100441;;;;589151;243;24009;-75
2023/03/16 03:51:08;;;;;;;8.07;4.97;;;-1.60;99.90;-2.80;100433;;;;589278;243;23954;-78
2023/03/16 03:53:37;;;;;;;12.03;5.73;;;-1.60;99.90;-2.80;100435;;;;589622;243;23970;-75
2023/03/16 03:56:05;;;;;;;8.50;5.80;;;-1.70;99.90;-2.80;100442;;;;589618;242;23958;-76
2023/03/16 03:58:34;;;;;;;13.87;5.93;;;-1.60;99.90;-2.80;100441;;;;580757;243;24090;-76
2023/03/16 04:01:01;;;;;;;11.23;5.67;;;-1.80;99.90;-2.80;100429;;;;589148;243;23954;-78
2023/03/16 04:03:29;;;;;;;10.37;5.80;;;-1.60;99.90;-2.70;100425;;;;589684;242;23971;-77
2023/03/16 04:05:58;;;;;;;9.57;5.23;;;-1.60;99.90;-2.70;100432;;;;590540;242;24100;-74
2023/03/16 04:08:27;;;;;;;10.33;6.60;;;-1.60;99.90;-2.70;100432;;;;590365;242;23969;-76
2023/03/16 04:10:55;;;;;;;9.60;5.93;;;-1.60;99.90;-2.70;100435;;;;590074;242;23988;-73
2023/03/16 04:13:23;;;;;;;8.80;6.20;;;-1.60;99.90;-2.70;100435;;;;589956;242;24136;-77
2023/03/16 04:15:57;;;;;;;13.37;6.40;;;-1.60;99.90;-2.70;100441;;;;589801;243;24002;-78
2023/03/16 04:18:25;;;;;;;11.30;6.43;;;-1.60;99.90;-2.70;100432;;;;580850;242;25077;-78
2023/03/16 04:20:53;;;;;;;12.13;6.83;;;-1.60;99.90;-2.70;100441;;;;580854;243;23960;-77
2023/03/16 04:23:24;;;;;;;16.53;6.93;;;-1.60;99.90;-2.70;100431;;;;590393;243;24004;-75
2023/03/16 04:25:49;;;;;;;10.97;7.00;;;-1.50;99.90;-2.60;100437;;;;580274;243;24046;-76
2023/03/16 04:28:17;;;;;;;16.10;7.57;;;-1.50;99.90;-2.60;100433;;;;589295;242;23984;-75
2023/03/16 04:30:44;;;;;;;15.03;8.23;;;-1.50;99.90;-2.60;100428;;;;580543;243;25002;-77
2023/03/16 04:33:13;;;;;;;12.97;8.40;;;-1.50;99.90;-2.50;100443;;;;589679;243;23981;-73
2023/03/16 04:35:40;;;;;;;17.93;8.80;;;-1.40;99.90;-2.50;100439;;;;589763;243;24001;-75
2023/03/16 04:38:09;;;;;;;17.40;9.17;;;-1.40;99.90;-2.50;100430;;;;589495;243;24046;-74
2023/03/16 04:40:36;;;;;;;14.27;8.40;;;-1.40;99.90;-2.50;100430;;;;589226;242;23981;-75
2023/03/16 04:43:04;;;;;;;14.73;8.70;;;-1.40;99.90;-2.50;100427;;;;589307;243;23982;-73
2023/03/16 04:45:32;;;;;;;14.70;9.23;;;-1.40;99.90;-2.50;100429;;;;589250;243;23950;-77
2023/03/16 04:48:03;;;;;;;15.23;8.80;;;-1.40;99.90;-2.50;100432;;;;589099;243;24008;-75
2023/03/16 04:50:28;;;;;;;18.53;9.20;;;-1.40;99.90;-2.50;100426;;;;588848;243;24006;-75
2023/03/16 04:52:56;;;;;;;12.40;8.03;;;-1.40;99.90;-2.50;100433;;;;589078;243;23953;-74
2023/03/16 04:55:24;;;;;;;16.23;8.63;;;-1.40;99.90;-2.50;100439;;;;589600;242;23971;-73
2023/03/16 04:57:52;;;;;;;14.47;9.60;;;-1.40;99.90;-2.50;100437;;;;589452;240;24014;-77
2023/03/16 05:00:20;;;;;;;13.50;9.50;;;-1.40;99.90;-2.50;100438;;;;580675;243;23994;-76
2023/03/16 05:02:47;;;;;;;12.17;8.93;;;-1.40;99.90;-2.40;100435;;;;580751;243;23955;-78
2023/03/16 05:05:18;;;;;;;14.77;9.50;;;-1.30;99.90;-2.40;100443;;;;580087;243;24004;-78
2023/03/16 05:07:43;;;;;;;16.57;9.90;;;-1.30;99.90;-2.30;100437;;;;580135;243;24016;-76
2023/03/16 05:10:11;;;;;;;20.57;10.83;;;-1.20;99.90;-2.20;100439;;;;577653;243;23994;-78
2023/03/16 05:12:39;;;;;;;16.97;10.07;;;-1.10;99.90;-2.00;100448;;;;580278;243;23961;-78
2023/03/16 05:15:07;;;;;;;17.60;9.97;;;-1.00;99.90;-2.00;100438;;;;580696;242;23967;-78
2023/03/16 05:17:35;;;;;;;19.07;9.43;;;-0.90;99.90;-1.90;100441;;;;590482;241;24000;-73
2023/03/16 05:20:07;;;;;;;18.83;10.27;;;-0.90;99.90;-1.90;100435;;;;581284;243;23954;-77
2023/03/16 05:22:31;;;;;;;15.50;8.77;;;-0.80;99.90;-1.80;100434;;;;589744;243;23988;-75
2023/03/16 05:25:02;;;;;;;17.23;10.60;;;-0.80;99.90;-1.80;100444;;;;580939;243;23972;-73
2023/03/16 05:27:27;;;;;;;18.33;9.70;;;-0.70;99.90;-1.80;100443;;;;580535;243;23985;-73
2023/03/16 05:29:55;;;;;;;23.83;12.88;;;-0.70;99.90;-1.80;100441;;;;584932;242;34248;-73
2023/03/16 05:32:23;;;;;;;12.43;5.20;;;-0.70;99.90;-1.80;100450;;;;581167;243;24044;-74
2023/03/16 05:34:52;;;;;;;14.47;8.83;;;-0.70;99.90;-1.70;100450;;;;589754;243;24021;-74
2023/03/16 05:37:19;;;;;;;18.93;9.53;;;-0.70;99.90;-1.70;100452;;;;589582;243;23973;-73
2023/03/16 05:39:48;;;;;;;18.13;10.00;;;-0.60;99.90;-1.70;100449;;;;589430;243;24016;-72
2023/03/16 05:42:16;;;;;;;17.73;10.63;;;-0.60;99.90;-1.60;100456;;;;580542;243;23965;-72
2023/03/16 05:44:44;;;;;;;20.33;8.77;;;-0.60;99.90;-1.50;100453;;;;580423;243;24021;-73
2023/03/16 05:47:12;;;;;;;19.37;9.60;;;-0.40;99.90;-1.40;100460;;;;589322;243;23968;-73
2023/03/16 05:49:41;;;;;;;13.70;9.67;;;-0.20;99.90;-1.20;100457;;;;589439;243;24010;-73
2023/03/16 05:52:10;;;;;;;18.13;9.23;;;0.00;99.90;-1.00;100463;;;;589074;243;24046;-73
2023/03/16 05:54:38;;;;;;;19.57;10.00;;;-0.10;99.90;-0.80;100460;;;;589122;243;23966;-73
2023/03/16 05:57:05;;;;;;;21.03;8.67;;;0.10;99.90;-0.60;100462;;;;580299;239;23961;-75
2023/03/16 05:59:33;;;;;;;17.03;7.93;;;0.40;99.90;-0.40;100464;;;;589219;242;23987;-74
2023/03/16 06:02:01;;;;;;;9.53;5.83;;;0.50;99.90;-0.20;100463;;;;589204;243;23969;-73
2023/03/16 06:04:30;;;;;;;17.12;9.85;;;0.70;99.90;0.20;100464;;;;583960;243;45118;-75
2023/03/16 06:06:58;;;;;;;9.13;4.70;;;1.30;99.90;0.20;100463;;;;589117;243;23966;-74
2023/03/16 06:09:26;;;;;;;12.53;5.33;;;1.20;99.90;0.10;100462;;;;589114;243;23990;-72
2023/03/16 06:11:54;;;;;;;13.97;4.23;;;1.20;99.90;-0.10;100463;;;;589341;243;24004;-73
2023/03/16 06:14:22;;;;;;;9.17;5.00;;;1.10;99.90;-0.10;100468;;;;580087;243;24004;-74
2023/03/16 06:16:53;;;;;;;12.57;5.03;;;1.10;99.90;-0.10;100474;;;;589061;243;24005;-75
2023/03/16 06:19:17;;;;;;;8.07;4.57;;;1.00;99.90;-0.10;100477;;;;588781;243;23977;-74
2023/03/16 06:21:46;;;;;;;5.20;3.97;;;1.00;99.90;-0.10;100475;;;;589178;243;23966;-74
2023/03/16 06:24:14;;;;;;;8.63;3.93;;;1.00;99.90;0.00;100482;;;;589260;243;23966;-77
2023/03/16 06:26:42;;;;;;;8.80;4.97;;;1.00;99.90;1.60;100488;;;;589629;242;24038;-76
2023/03/16 06:29:10;;;;;;;9.13;5.30;;;2.10;99.90;3.90;100500;;;;590770;242;23965;-76
2023/03/16 06:31:38;;;;;;;10.80;5.83;;;6.20;99.90;6.00;100505;;;;590454;243;24015;-77
2023/03/16 06:34:06;;;;;;;12.70;7.70;;;6.20;99.90;8.10;100517;;;;590391;242;24014;-78
2023/03/16 06:36:37;;;;;;;21.33;7.73;;;8.30;99.90;10.10;100518;;;;578690;243;23994;-77
2023/03/16 06:39:05;;;;;;;13.83;5.93;;;10.30;99.90;11.90;100523;;;;580789;243;24007;-78
2023/03/16 06:41:30;;;;;;;8.30;5.27;;;12.20;99.90;12.80;100519;;;;580730;243;23995;-77
2023/03/16 06:43:58;;;;;;;10.60;5.07;;;13.40;99.90;12.20;100516;;;;590072;243;24012;-73
2023/03/16 06:46:26;;;;;;;9.33;4.87;;;13.40;99.90;11.00;100512;;;;589787;243;24011;-75
2023/03/16 06:48:54;;;;;;;11.10;5.10;;;12.60;99.90;10.00;100513;;;;580780;243;24015;-75
2023/03/16 06:51:23;;;;;;;12.33;5.20;;;10.70;99.90;8.90;100505;;;;589730;243;24027;-74
2023/03/16 06:53:51;;;;;;;9.47;5.13;;;9.70;99.90;8.10;100509;;;;589830;243;23962;-73
2023/03/16 06:56:19;;;;;;;8.30;4.73;;;9.70;99.90;7.60;100513;;;;589806;243;23960;-73
2023/03/16 06:58:47;;;;;;;14.20;5.13;;;9.10;99.90;7.20;100523;;;;589492;239;23980;-75
2023/03/16 07:01:15;;;;;;;7.30;5.10;;;8.50;99.90;6.90;100519;;;;589494;243;23978;-74
2023/03/16 07:03:43;;;;;;;11.50;5.27;;;8.20;99.90;6.90;100525;;;;589156;241;23984;-75
2023/03/16 07:06:11;;;;;;;10.33;5.27;;;8.00;99.90;6.90;100524;;;;589255;243;24020;-77
2023/03/16 07:08:41;;;;;;;7.03;4.23;;;7.90;99.90;7.00;100526;;;;589152;243;23957;-73
2023/03/16 07:11:07;;;;;;;14.43;4.67;;;7.90;99.90;7.10;100535;;;;589253;243;23973;-75
2023/03/16 07:13:35;;;;;;;10.03;4.33;;;8.00;99.90;7.20;100534;;;;580181;243;23981;-75
2023/03/16 07:16:03;;;;;;;13.43;3.70;;;8.00;99.90;7.10;100541;;;;575397;243;24012;-76
2023/03/16 07:18:31;;;;;;;4.87;3.10;;;8.00;99.90;6.90;100543;;;;575424;243;24015;-76
2023/03/16 07:20:59;;;;;;;10.83;3.10;;;7.80;99.90;6.50;100538;;;;589106;242;24000;-76
2023/03/16 07:23:27;;;;;;;6.50;3.30;;;7.50;99.90;6.30;100532;;;;580222;243;23985;-76
2023/03/16 07:25:55;;;;;;;8.67;2.67;;;7.20;99.90;6.10;100539;;;;589122;243;24497;-76
2023/03/16 07:28:23;;;;;;;10.27;3.27;;;7.00;99.90;6.00;100539;;;;589343;243;23976;-76
2023/03/16 07:30:51;;;;;;;5.43;2.93;;;6.90;99.90;6.10;100541;;;;589279;243;24016;-76
2023/03/16 07:33:19;;;;;;;5.63;3.07;;;6.90;99.90;6.30;100550;;;;589546;242;23966;-77
2023/03/16 07:35:46;;;;;;;7.70;3.07;;;7.00;99.90;6.50;100553;;;;580678;243;24035;-73
2023/03/16 07:38:15;;;;;;;12.53;3.83;;;7.40;99.90;6.60;100549;;;;589950;241;24034;-74
2023/03/16 07:40:43;;;;;;;7.57;3.27;;;7.30;99.90;6.60;100559;;;;590967;242;23971;-73
2023/03/16 07:43:12;;;;;;;7.23;3.90;;;7.40;99.90;6.50;100552;;;;585425;242;45007;-73
2023/03/16 07:45:39;;;;;;;11.67;4.03;;;7.40;99.90;6.50;100559;;;;590277;243;23976;-74
2023/03/16 07:48:08;;;;;;;7.50;3.03;;;7.20;99.90;6.40;100555;;;;590185;242;24023;-76
2023/03/16 07:50:35;;;;;;;10.87;2.93;;;7.20;99.90;6.40;100547;;;;590114;243;23989;-77
2023/03/16 07:53:04;;;;;;;8.20;3.13;;;7.20;99.90;6.20;100553;;;;590201;243;24010;-73
2023/03/16 07:55:31;;;;;;;10.27;2.87;;;7.10;99.90;6.10;100551;;;;590185;243;23983;-77
2023/03/16 07:58:00;;;;;;;7.10;3.03;;;7.00;99.90;5.90;100550;;;;589660;239;24000;-77
2023/03/16 08:00:27;;;;;;;6.27;2.30;;;6.80;99.90;5.80;100553;;;;589975;243;23965;-74
2023/03/16 08:02:56;;;;;;;5.70;2.77;;;6.70;99.90;5.70;100549;;;;578513;243;23997;-74
2023/03/16 08:05:23;;;;;;;5.40;1.97;;;6.50;99.90;5.70;100555;;;;589952;243;25063;-75
2023/03/16 08:07:54;;;;;;;8.43;2.93;;;6.60;99.90;5.90;100566;;;;580967;243;24073;-73
2023/03/16 08:10:19;;;;;;;8.63;3.17;;;6.60;99.90;6.10;100561;;;;589590;240;23972;-75
2023/03/16 08:12:47;;;;;;;3.53;3.03;;;6.90;99.90;6.40;100562;;;;580975;243;23955;-75
2023/03/16 08:15:15;;;;;;;4.63;3.53;;;7.20;99.90;6.80;100567;;;;589854;243;24068;-76
2023/03/16 08:17:42;;;;;;;7.07;3.07;;;7.50;99.90;7.10;100564;;;;589834;243;23969;-75
2023/03/16 08:20:13;;;;;;;3.97;3.03;;;7.80;99.90;7.50;100558;;;;589743;242;23965;-76
2023/03/16 08:22:39;;;;;;;7.63;2.90;;;8.50;99.90;7.80;100567;;;;580781;243;24041;-76
2023/03/16 08:25:09;;;;;;;6.50;3.03;;;8.50;99.90;8.20;100576;;;;589740;243;24033;-77
2023/03/16 08:27:36;;;;;;;6.27;2.90;;;8.80;99.90;8.40;100577;;;;580546;243;23978;-76
2023/03/16 08:30:06;;;;;;;5.30;2.63;;;9.10;99.90;8.60;100588;;;;580544;243;24012;-76
2023/03/16 08:32:34;;;;;;;4.47;2.97;;;9.30;99.90;8.80;100593;;;;589539;243;23986;-74
2023/03/16 08:35:02;;;;;;;10.37;3.80;;;9.60;99.90;8.90;100591;;;;570172;243;34202;-75
2023/03/16 08:37:30;;;;;;;7.20;2.97;;;9.70;99.90;9.00;100604;;;;582237;246;24017;-78
2023/03/16 08:39:59;;;;;;;5.30;3.27;;;9.80;99.90;9.30;100600;;;;576200;243;23991;-75
2023/03/16 08:42:27;;;;;;;7.47;2.97;;;10.00;99.90;9.60;100611;;;;583968;243;24024;-75
2023/03/16 08:44:54;;;;;;;4.03;3.33;;;10.30;99.90;9.90;100610;;;;564951;248;24065;-76
2023/03/16 08:47:24;;;;;;;4.63;2.93;;;10.60;99.90;10.10;100615;;;;573014;248;24002;-76
2023/03/16 08:49:49;;;;;;;6.20;3.37;;;10.90;99.90;10.50;100622;;;;580335;242;24014;-79
2023/03/16 08:52:17;;;;;;;8.90;3.70;;;11.10;99.90;10.90;100639;;;;579079;243;23966;-77
2023/03/16 08:54:45;;;;;;;4.67;3.60;;;11.60;99.90;11.50;100635;;;;578564;243;23966;-78
2023/03/16 08:57:13;;;;;;;9.53;4.00;;;12.20;99.90;11.60;100643;;;;578517;243;24041;-78
2023/03/16 08:59:44;;;;;;;6.03;3.90;;;12.40;99.90;11.60;100640;;;;578268;243;23987;-76
2023/03/16 09:02:09;;;;;;;7.00;3.10;;;12.50;98.80;11.50;100646;;;;580855;243;24014;-76
2023/03/16 09:04:39;;;;;;;5.07;2.67;;;12.40;97.70;11.50;100644;;;;576310;243;24041;-77
2023/03/16 09:07:07;;;;;;;7.60;3.10;;;12.50;97.50;11.70;100644;;;;578473;243;24040;-78
2023/03/16 09:09:34;;;;;;;3.73;3.03;;;12.40;97.40;12.10;100653;;;;576818;243;24049;-77
2023/03/16 09:12:03;;;;;;;5.77;2.63;;;12.80;97.10;12.40;100662;;;;580816;243;24035;-78
2023/03/16 09:14:30;;;;;;;5.43;2.97;;;13.10;96.30;12.80;100662;;;;580685;243;24040;-76
2023/03/16 09:16:58;;;;;;;6.60;3.17;;;13.50;95.30;13.30;100665;;;;589768;242;23961;-76
2023/03/16 09:19:26;;;;;;;6.30;3.10;;;13.90;93.90;13.20;100672;;;;589847;243;23961;-76
2023/03/16 09:21:54;;;;;;;4.60;2.70;;;14.00;92.40;13.60;100674;;;;580796;243;23965;-76
2023/03/16 09:24:23;;;;;;;5.30;2.77;;;15.10;91.30;14.50;100677;;;;589793;243;24048;-77
2023/03/16 09:26:51;;;;;;;5.33;2.70;;;15.50;89.80;14.80;100682;;;;589538;243;23963;-77
2023/03/16 09:29:22;;;;;;;4.47;2.87;;;15.50;89.70;14.70;100686;;;;581119;243;24013;-76
2023/03/16 09:31:47;;;;;;;4.83;2.40;;;15.60;85.80;14.20;100690;;;;566109;248;24060;-78
2023/03/16 09:34:15;;;;;;;4.77;2.63;;;15.20;85.20;13.60;100679;;;;580594;243;23966;-77
2023/03/16 09:36:43;;;;;;;3.70;2.30;;;14.70;84.50;12.70;100690;;;;589116;243;24108;-77
2023/03/16 09:39:14;;;;;;;3.83;2.53;;;14.00;85.00;12.10;100689;;;;577803;243;24034;-77
2023/03/16 09:42:03;;;;;;;5.73;2.50;;;13.20;87.10;11.50;100690;;;;576007;243;23963;-74
2023/03/16 09:44:34;;;;;;;6.23;3.17;;;12.60;89.10;11.00;100692;;;;564083;250;24113;-75
2023/03/16 09:47:02;;;;;;;7.13;3.50;;;12.00;90.90;10.70;100689;;;;580757;243;24063;-75
2023/03/16 09:49:30;;;;;;;5.50;2.77;;;11.60;91.90;10.60;100700;;;;590514;243;25058;-75
2023/03/16 09:52:15;;;;;;;6.03;2.67;;;11.40;92.60;10.40;100691;;;;580148;243;24051;-77
2023/03/16 09:54:49;;;;;;;4.27;2.33;;;11.30;93.10;10.50;100704;;;;578180;243;24031;-75
2023/03/16 09:57:17;;;;;;;5.07;2.53;;;11.30;93.90;10.60;100700;;;;588710;243;25068;-75
2023/03/16 09:59:48;;;;;;;5.83;2.47;;;11.30;93.80;10.80;100703;;;;589438;243;24121;-73
2023/03/16 10:02:34;;;;;;;5.17;2.10;;;11.50;94.30;11.30;100712;;;;582268;242;24015;-77
2023/03/16 10:05:11;;;;;;;3.93;2.10;;;12.20;92.90;11.60;100719;;;;590889;242;24024;-73
2023/03/16 10:08:06;;;;;;;3.17;2.27;;;12.20;92.90;11.80;100719;;;;582202;243;24011;-74
2023/03/16 10:10:53;;;;;;;4.40;2.27;;;12.40;92.20;11.70;100721;;;;579181;243;24019;-74
2023/03/16 10:13:41;;;;;;;3.27;2.30;;;12.50;91.90;11.50;100717;;;;579319;243;24060;-76
2023/03/16 10:16:24;;;;;;;7.73;2.57;;;12.30;91.70;11.30;100733;;;;578904;243;24057;-76
2023/03/16 10:18:55;;;;;;;13.40;4.67;;;12.20;92.00;11.10;100733;;;;579168;243;24028;-75
2023/03/16 10:21:23;;;;;;;23.17;6.60;;;11.90;92.20;10.80;100737;;;;586074;243;24051;-75
2023/03/16 10:23:54;;;;;;;16.47;5.97;;;11.60;92.30;10.40;100743;;;;590077;243;24084;-74
2023/03/16 10:26:21;;;;;;;23.63;7.40;;;11.20;92.70;10.10;100744;;;;581291;243;24095;-74
2023/03/16 10:28:49;;;;;;;20.80;9.53;;;10.90;93.40;9.80;100740;;;;578850;243;24039;-74
2023/03/16 10:31:17;;;;;;;23.73;6.90;;;10.60;93.90;9.50;100743;;;;581504;243;24055;-74
2023/03/16 10:33:45;;;;;;;2.77;2.57;;;10.30;94.50;9.20;100755;;;;590164;243;24041;-74
2023/03/16 10:36:24;;;;;;;4.50;2.57;;;10.00;94.90;9.00;100756;;;;590539;242;24019;-75
2023/03/16 10:38:54;;;;;;;12.23;4.87;;;9.80;95.30;8.70;100758;;;;579951;243;25190;-74
2023/03/16 10:41:20;;;;;;;14.40;4.50;;;9.50;95.80;8.50;100754;;;;580707;243;24034;-74
2023/03/16 10:44:13;;;;;;;18.23;7.23;;;9.30;96.50;8.40;100762;;;;580754;243;24064;-74
2023/03/16 10:46:49;;;;;;;4.03;2.77;;;9.10;97.30;8.40;100762;;;;581172;243;24050;-75
2023/03/16 10:49:26;;;;;;;6.63;2.63;;;9.10;97.70;8.50;100755;;;;589574;243;24093;-74
2023/03/16 10:51:54;;;;;;;8.77;3.27;;;9.20;98.20;8.60;100770;;;;579883;243;24032;-77
2023/03/16 10:54:30;;;;;;;21.17;5.17;;;9.30;98.30;8.60;100773;;;;580811;243;24036;-73
2023/03/16 10:56:59;;;;;;;22.43;6.60;;;9.30;98.30;8.30;100768;;;;580814;243;24028;-74
2023/03/16 10:59:30;;;;;;;10.03;3.10;;;9.10;98.50;8.20;100766;;;;581128;243;24040;-74
2023/03/16 11:01:57;;;;;;;6.00;3.03;;;9.00;99.10;8.00;100770;;;;581005;243;24057;-76
2023/03/16 11:04:25;;;;;;;5.83;3.50;;;8.90;99.50;7.80;100772;;;;580723;243;24056;-78
2023/03/16 11:06:58;;;;;;;8.40;2.77;;;8.60;99.80;7.60;100769;;;;580883;243;24062;-77
2023/03/16 11:09:31;;;;;;;5.73;2.60;;;8.50;99.90;7.50;100764;;;;580364;243;24041;-76
2023/03/16 11:12:02;;;;;;;6.97;3.80;;;8.30;99.90;7.60;100774;;;;581030;243;24076;-75
2023/03/16 11:14:28;;;;;;;5.33;3.03;;;8.30;99.90;7.80;100778;;;;580745;242;24117;-74
2023/03/16 11:17:24;;;;;;;16.33;4.43;;;8.50;99.90;8.00;100786;;;;581672;243;24152;-75
2023/03/16 11:19:54;;;;;;;2.60;2.40;;;8.70;99.90;8.10;100782;;;;581244;243;24027;-76